Time;durP1;ratioP1;P1;durP2;ratioP2;P2;SDS_P1;SDS_P2;PMS_P1;PMS_P2;Temp;Humidity;BMP_temperature;BMP_pressure;BME280_temperature;BME280_humidity;BME280_pressure;Samples;Min_cycle;Max_cycle;Signal;HPM_P1;HPM_P2
2022/06/28 00:00:05;;;;;;;5.15;3.70;;;15.80;99.90;;;;;;5026034;28;20144;-37
2022/06/28 00:02:30;;;;;;;4.05;3.65;;;15.80;99.90;;;;;;5024917;28;20029;-35
2022/06/28 00:04:56;;;;;;;3.65;3.35;;;15.70;99.90;;;;;;5026767;28;20025;-35
2022/06/28 00:07:21;;;;;;;4.03;3.63;;;15.70;99.90;;;;;;5025629;28;20033;-33
2022/06/28 00:09:47;;;;;;;6.20;3.92;;;15.70;99.90;;;;;;5024778;28;20037;-35
2022/06/28 00:12:13;;;;;;;4.57;4.15;;;15.70;99.90;;;;;;5026274;28;20099;-34
2022/06/28 00:17:22;;;;;;;6.10;4.95;;;15.70;99.90;;;;;;5006387;28;20053;-34
2022/06/28 00:19:48;;;;;;;5.22;4.25;;;15.70;99.90;;;;;;5021986;28;20029;-35
2022/06/28 00:22:14;;;;;;;5.22;4.72;;;15.70;99.90;;;;;;5025214;28;20039;-35
2022/06/28 00:24:39;;;;;;;4.88;4.47;;;15.70;99.90;;;;;;5025416;28;20072;-36
2022/06/28 00:27:05;;;;;;;5.10;4.60;;;15.60;99.90;;;;;;5026122;28;20196;-36
2022/06/28 00:29:30;;;;;;;5.13;4.63;;;15.60;99.90;;;;;;5025103;28;20029;-35
2022/06/28 00:31:56;;;;;;;5.22;4.72;;;15.60;99.90;;;;;;5025726;28;20083;-37
2022/06/28 00:34:22;;;;;;;5.55;5.00;;;15.60;99.90;;;;;;5025519;28;20026;-35
2022/06/28 00:36:47;;;;;;;5.07;4.57;;;15.70;99.90;;;;;;5024259;28;20084;-36
2022/06/28 00:39:13;;;;;;;4.47;4.07;;;15.70;99.90;;;;;;5025373;28;20033;-35
2022/06/28 00:41:39;;;;;;;5.47;4.32;;;15.60;99.90;;;;;;5025096;28;20033;-35
2022/06/28 00:44:05;;;;;;;5.53;4.93;;;15.60;99.90;;;;;;5024486;28;20029;-35
2022/06/28 00:46:33;;;;;;;6.03;4.97;;;15.60;99.90;;;;;;5024917;28;20029;-35
2022/06/28 00:49:00;;;;;;;6.07;5.40;;;15.50;99.90;;;;;;5025728;28;20030;-35
2022/06/28 00:51:25;;;;;;;5.97;5.45;;;15.50;99.90;;;;;;5024160;28;20025;-36
2022/06/28 00:53:51;;;;;;;5.75;5.15;;;15.50;99.90;;;;;;5025876;28;20022;-35
2022/06/28 00:56:16;;;;;;;7.28;5.57;;;15.50;99.90;;;;;;5024498;28;20068;-35
2022/06/28 00:58:42;;;;;;;6.00;5.50;;;15.50;99.90;;;;;;5024057;28;20045;-35
2022/06/28 01:01:07;;;;;;;7.10;5.60;;;15.50;99.90;;;;;;5025493;28;20026;-35
2022/06/28 01:03:33;;;;;;;6.57;5.50;;;15.50;99.90;;;;;;5024664;28;20040;-35
2022/06/28 01:05:59;;;;;;;6.15;5.65;;;15.50;99.90;;;;;;5024215;28;20543;-35
2022/06/28 01:08:25;;;;;;;6.07;5.47;;;15.50;99.90;;;;;;5025098;28;20759;-35
2022/06/28 01:10:51;;;;;;;7.10;5.15;;;15.50;99.90;;;;;;5025400;28;20038;-35
2022/06/28 01:13:17;;;;;;;5.95;5.35;;;15.50;99.90;;;;;;5024792;28;20017;-34
2022/06/28 01:15:43;;;;;;;6.78;5.78;;;15.50;99.90;;;;;;5027737;28;20052;-36
2022/06/28 01:18:10;;;;;;;6.70;6.10;;;15.50;99.90;;;;;;5029130;28;20112;-34
2022/06/28 01:20:36;;;;;;;6.80;5.95;;;15.40;99.90;;;;;;5026846;28;20361;-34
2022/06/28 01:23:02;;;;;;;6.28;5.78;;;15.40;99.90;;;;;;5029193;28;20487;-35
2022/06/28 01:25:28;;;;;;;6.43;5.85;;;15.40;99.90;;;;;;5027409;28;20033;-35
2022/06/28 01:27:55;;;;;;;7.60;6.22;;;15.30;99.90;;;;;;5028844;28;20432;-44
2022/06/28 01:30:21;;;;;;;7.03;6.38;;;15.40;99.90;;;;;;5028907;28;20025;-36
2022/06/28 01:32:47;;;;;;;6.53;5.93;;;15.30;99.90;;;;;;5027302;28;20043;-36
2022/06/28 01:35:13;;;;;;;7.57;6.78;;;15.40;99.90;;;;;;5028135;28;20036;-34
2022/06/28 01:37:39;;;;;;;7.32;6.63;;;15.30;99.90;;;;;;5028037;28;20440;-34
2022/06/28 01:40:06;;;;;;;7.18;6.30;;;15.30;99.90;;;;;;5027778;28;20025;-35
2022/06/28 01:42:31;;;;;;;7.38;6.78;;;15.30;99.90;;;;;;5027750;28;20039;-35
2022/06/28 01:44:58;;;;;;;8.30;6.60;;;15.30;99.90;;;;;;5028586;28;20030;-35
2022/06/28 01:47:26;;;;;;;6.82;6.22;;;15.20;99.90;;;;;;5027128;28;20036;-35
2022/06/28 01:49:52;;;;;;;7.43;6.70;;;15.20;99.90;;;;;;5028834;28;20030;-35
2022/06/28 01:52:18;;;;;;;7.72;7.03;;;15.20;99.90;;;;;;5028459;28;20021;-35
2022/06/28 01:54:43;;;;;;;7.85;7.05;;;15.20;99.90;;;;;;5027306;28;20041;-35
2022/06/28 01:57:09;;;;;;;7.03;6.43;;;15.20;99.90;;;;;;5027741;28;20029;-33
2022/06/28 01:59:37;;;;;;;7.72;7.03;;;15.20;99.90;;;;;;5027832;28;20049;-35
2022/06/28 02:02:03;;;;;;;7.65;6.65;;;15.20;99.90;;;;;;5027414;28;20038;-35
2022/06/28 02:04:30;;;;;;;7.35;6.65;;;15.10;99.90;;;;;;5027518;28;20495;-35
2022/06/28 02:06:56;;;;;;;7.80;7.15;;;15.10;99.90;;;;;;5028251;28;20453;-35
2022/06/28 02:09:23;;;;;;;7.18;6.50;;;15.10;99.90;;;;;;5026554;28;20473;-34
2022/06/28 02:11:49;;;;;;;8.07;7.38;;;15.10;99.90;;;;;;5028077;28;20029;-35
2022/06/28 02:14:15;;;;;;;8.27;7.47;;;15.00;99.90;;;;;;5027578;28;20017;-34
2022/06/28 02:16:41;;;;;;;8.75;7.72;;;15.00;99.90;;;;;;5026994;28;20044;-34
2022/06/28 02:19:06;;;;;;;7.75;7.05;;;15.00;99.90;;;;;;5028416;28;20018;-36
2022/06/28 02:21:36;;;;;;;8.55;7.10;;;15.00;99.90;;;;;;5026358;28;20815;-34
2022/06/28 02:24:03;;;;;;;7.82;7.13;;;15.00;99.90;;;;;;5027837;28;20033;-36
2022/06/28 02:26:29;;;;;;;8.70;7.80;;;14.90;99.90;;;;;;5026879;28;20021;-41
2022/06/28 02:28:54;;;;;;;7.90;6.80;;;15.00;99.90;;;;;;5026690;28;20098;-35
2022/06/28 02:31:20;;;;;;;8.00;7.32;;;14.90;99.90;;;;;;5027469;28;20045;-36
2022/06/28 02:33:46;;;;;;;8.10;7.22;;;14.90;99.90;;;;;;5026916;28;20304;-35
2022/06/28 02:41:39;;;;;;;7.20;6.60;;;14.90;99.90;;;;;;5007779;28;20045;-34
2022/06/28 02:44:05;;;;;;;8.23;6.88;;;14.80;99.90;;;;;;5014407;28;20021;-35
2022/06/28 02:46:31;;;;;;;7.88;6.90;;;14.80;99.90;;;;;;5012299;28;20478;-35
2022/06/28 02:48:56;;;;;;;8.05;7.25;;;14.80;99.90;;;;;;5012184;28;20314;-35
2022/06/28 02:51:22;;;;;;;8.32;7.55;;;14.80;99.90;;;;;;5013827;28;20456;-35
2022/06/28 02:53:48;;;;;;;8.20;7.50;;;14.80;99.90;;;;;;5010327;28;20032;-35
2022/06/28 02:56:14;;;;;;;8.27;7.43;;;14.80;99.90;;;;;;5020923;28;20046;-35
2022/06/28 02:58:40;;;;;;;7.82;7.13;;;14.70;99.90;;;;;;5009737;28;20040;-34
2022/06/28 03:01:05;;;;;;;9.10;7.35;;;14.70;99.90;;;;;;5027091;28;20056;-34
2022/06/28 03:03:31;;;;;;;8.82;7.88;;;14.70;99.90;;;;;;5026224;28;20029;-34
2022/06/28 03:05:57;;;;;;;9.20;7.80;;;14.70;99.90;;;;;;5026286;28;20068;-34
2022/06/28 03:08:22;;;;;;;9.07;8.27;;;14.70;99.90;;;;;;5027212;28;20485;-35
2022/06/28 03:10:48;;;;;;;8.52;7.72;;;14.70;99.90;;;;;;5022373;28;20385;-35
2022/06/28 03:13:14;;;;;;;7.93;7.22;;;14.70;99.90;;;;;;5010704;28;20380;-35
2022/06/28 03:15:39;;;;;;;8.40;7.68;;;14.70;99.90;;;;;;5026423;28;20017;-34
2022/06/28 03:18:05;;;;;;;8.82;8.02;;;14.60;99.90;;;;;;5026007;28;20452;-35
2022/06/28 03:20:31;;;;;;;9.02;7.97;;;14.60;99.90;;;;;;5025968;28;20037;-35
2022/06/28 03:22:56;;;;;;;8.90;8.00;;;14.60;99.90;;;;;;5026115;28;20025;-36
2022/06/28 03:25:22;;;;;;;8.40;7.70;;;14.60;99.90;;;;;;5025400;28;20469;-35
2022/06/28 03:27:48;;;;;;;8.90;8.10;;;14.60;99.90;;;;;;5026505;28;20034;-35
2022/06/28 03:30:14;;;;;;;8.75;7.95;;;14.60;99.90;;;;;;5026146;28;20033;-34
2022/06/28 03:32:40;;;;;;;9.27;8.48;;;14.60;99.90;;;;;;5025430;28;20049;-34
2022/06/28 03:35:07;;;;;;;9.20;8.00;;;14.60;99.90;;;;;;5026331;28;20060;-35
2022/06/28 03:37:33;;;;;;;9.20;8.40;;;14.50;99.90;;;;;;5025483;28;20037;-34
2022/06/28 03:39:58;;;;;;;8.63;7.85;;;14.50;99.90;;;;;;5025965;28;20092;-35
2022/06/28 03:42:24;;;;;;;9.48;8.55;;;14.50;99.90;;;;;;5026297;28;20037;-39
2022/06/28 03:44:50;;;;;;;9.32;8.52;;;14.50;99.90;;;;;;5026313;28;20028;-35
2022/06/28 03:47:15;;;;;;;9.20;8.30;;;14.50;99.90;;;;;;5025196;28;20025;-36
2022/06/28 03:49:41;;;;;;;8.70;7.90;;;14.50;99.90;;;;;;5026047;28;20164;-35
2022/06/28 03:52:07;;;;;;;8.65;7.85;;;14.50;99.90;;;;;;5026336;28;20397;-34
2022/06/28 03:54:33;;;;;;;9.05;8.10;;;14.50;99.90;;;;;;5024760;28;20083;-34
2022/06/28 03:56:58;;;;;;;9.05;8.20;;;14.50;99.90;;;;;;5025931;28;20026;-35
2022/06/28 03:59:24;;;;;;;9.07;8.30;;;14.50;99.90;;;;;;5025347;28;20456;-36
2022/06/28 04:01:50;;;;;;;9.18;8.38;;;14.50;99.90;;;;;;5025054;28;20109;-35
2022/06/28 04:04:16;;;;;;;9.02;8.23;;;14.50;99.90;;;;;;5025486;28;20029;-35
2022/06/28 04:06:41;;;;;;;9.30;8.30;;;14.50;99.90;;;;;;5025515;28;20033;-35
2022/06/28 04:09:07;;;;;;;9.10;8.30;;;14.50;99.90;;;;;;5025110;28;20021;-35
2022/06/28 04:11:33;;;;;;;9.13;8.10;;;14.50;99.90;;;;;;5024750;28;20108;-34
2022/06/28 04:13:58;;;;;;;8.65;7.90;;;14.50;99.90;;;;;;5026055;28;20076;-36
2022/06/28 04:16:24;;;;;;;8.30;7.60;;;14.50;99.90;;;;;;5024597;28;20028;-36
2022/06/28 04:18:50;;;;;;;8.07;7.38;;;14.50;99.90;;;;;;5025817;28;20022;-35
2022/06/28 04:21:18;;;;;;;8.38;7.60;;;14.50;99.90;;;;;;5024573;28;20483;-35
2022/06/28 04:23:43;;;;;;;8.15;7.35;;;14.50;99.90;;;;;;5025340;28;20221;-35
2022/06/28 04:26:09;;;;;;;7.88;7.18;;;14.50;99.90;;;;;;5025584;28;20029;-36
2022/06/28 04:28:35;;;;;;;7.93;7.22;;;14.50;99.90;;;;;;5024580;28;20026;-35
2022/06/28 04:31:01;;;;;;;8.75;7.32;;;14.60;99.90;;;;;;5026126;28;20499;-35
2022/06/28 04:33:27;;;;;;;7.65;7.05;;;14.60;99.90;;;;;;5024805;28;20473;-35
2022/06/28 04:35:53;;;;;;;7.00;6.40;;;14.60;99.90;;;;;;5024681;28;20034;-35
2022/06/28 04:38:19;;;;;;;6.93;6.32;;;14.60;99.90;;;;;;5025409;28;20491;-35
2022/06/28 04:40:45;;;;;;;6.88;5.95;;;14.60;99.90;;;;;;5025122;28;20084;-35
2022/06/28 04:43:10;;;;;;;6.47;5.95;;;14.60;99.90;;;;;;5024748;28;20029;-35
2022/06/28 04:45:36;;;;;;;6.50;5.95;;;14.60;99.90;;;;;;5025258;28;20299;-35
2022/06/28 04:48:02;;;;;;;6.68;6.05;;;14.60;99.90;;;;;;5025449;28;20473;-36
2022/06/28 04:50:28;;;;;;;6.80;6.20;;;14.60;99.90;;;;;;5027688;28;20022;-36
2022/06/28 04:52:53;;;;;;;9.30;6.50;;;14.60;99.90;;;;;;5029494;28;20132;-35
2022/06/28 04:55:19;;;;;;;6.32;5.72;;;14.60;99.90;;;;;;5030035;28;20114;-35
2022/06/28 04:57:45;;;;;;;6.47;5.85;;;14.60;99.90;;;;;;5028229;28;20026;-35
2022/06/28 05:00:11;;;;;;;6.75;6.15;;;14.60;99.90;;;;;;5028880;28;20572;-34
2022/06/28 05:02:38;;;;;;;6.15;5.65;;;14.60;99.90;;;;;;5028506;28;20029;-34
2022/06/28 05:05:04;;;;;;;6.20;5.57;;;14.60;99.90;;;;;;5028376;28;20646;-34
2022/06/28 05:07:32;;;;;;;4.95;4.55;;;14.60;99.90;;;;;;5028634;28;20044;-34
2022/06/28 05:09:57;;;;;;;5.60;5.10;;;14.60;99.90;;;;;;5029512;28;20018;-35
2022/06/28 05:12:23;;;;;;;5.65;5.15;;;14.60;99.90;;;;;;5027710;28;20171;-35
2022/06/28 05:14:48;;;;;;;5.75;5.03;;;14.60;99.90;;;;;;5028631;28;20017;-36
2022/06/28 05:17:14;;;;;;;5.40;4.90;;;14.70;99.90;;;;;;5029042;28;20112;-34
2022/06/28 05:19:39;;;;;;;4.88;4.47;;;14.60;99.90;;;;;;5028021;28;20025;-35
2022/06/28 05:22:08;;;;;;;5.20;4.70;;;14.70;99.90;;;;;;5029289;28;20021;-35
2022/06/28 05:24:33;;;;;;;4.07;3.75;;;14.70;99.90;;;;;;5027506;28;20096;-34
2022/06/28 05:26:59;;;;;;;4.97;3.97;;;14.70;99.90;;;;;;5029026;28;20128;-35
2022/06/28 05:29:24;;;;;;;4.80;3.97;;;14.70;99.90;;;;;;5027936;28;20480;-35
2022/06/28 05:31:50;;;;;;;4.28;3.88;;;14.70;99.90;;;;;;5028513;28;20462;-35
2022/06/28 05:34:15;;;;;;;4.30;3.90;;;14.80;99.90;;;;;;5028302;28;20060;-37
2022/06/28 05:36:41;;;;;;;5.70;4.00;;;14.80;99.90;;;;;;5027873;28;20116;-35
2022/06/28 05:39:08;;;;;;;4.10;3.60;;;14.80;99.90;;;;;;5027975;28;20024;-36
2022/06/28 05:41:33;;;;;;;5.30;4.18;;;14.80;99.90;;;;;;5028046;28;20033;-35
2022/06/28 05:44:00;;;;;;;4.82;3.83;;;14.90;99.90;;;;;;5026082;28;20484;-34
2022/06/28 05:46:25;;;;;;;4.53;4.10;;;14.90;99.90;;;;;;5019375;28;20041;-35
2022/06/28 05:48:51;;;;;;;5.03;4.15;;;14.90;99.90;;;;;;5025901;28;20022;-36
2022/06/28 05:51:17;;;;;;;5.50;4.32;;;14.90;99.90;;;;;;5014227;28;20022;-36
2022/06/28 05:53:42;;;;;;;6.53;4.25;;;14.90;99.90;;;;;;5025941;28;20028;-34
2022/06/28 05:56:08;;;;;;;5.63;4.57;;;15.00;99.90;;;;;;5014617;28;20088;-34
2022/06/28 05:58:33;;;;;;;5.57;3.65;;;15.00;99.90;;;;;;5027374;28;20120;-34
2022/06/28 06:00:59;;;;;;;5.97;3.80;;;15.00;99.90;;;;;;5015557;28;20034;-35
2022/06/28 06:03:24;;;;;;;4.47;3.70;;;15.10;99.90;;;;;;5024961;28;20017;-40
2022/06/28 06:05:50;;;;;;;5.15;3.95;;;15.10;99.90;;;;;;5021585;28;20120;-35
2022/06/28 06:08:15;;;;;;;7.60;4.65;;;15.10;99.90;;;;;;5011536;28;20022;-35
2022/06/28 06:10:41;;;;;;;8.73;4.35;;;15.20;99.90;;;;;;5011972;28;20107;-36
2022/06/28 06:13:06;;;;;;;5.75;4.65;;;15.20;99.90;;;;;;5015455;28;20022;-35
2022/06/28 06:15:32;;;;;;;7.20;4.60;;;15.20;99.90;;;;;;5007626;28;20200;-35
2022/06/28 06:17:58;;;;;;;7.28;4.53;;;15.30;99.90;;;;;;5017885;28;20469;-35
2022/06/28 06:20:23;;;;;;;6.10;4.80;;;15.30;99.90;;;;;;5007718;28;20461;-35
2022/06/28 06:22:49;;;;;;;7.03;4.25;;;15.40;99.90;;;;;;5018357;28;20014;-35
2022/06/28 06:25:16;;;;;;;7.65;4.10;;;15.40;99.90;;;;;;5007674;28;20033;-35
2022/06/28 06:27:42;;;;;;;6.32;3.60;;;15.40;99.90;;;;;;5018368;28;20460;-35
2022/06/28 06:30:09;;;;;;;7.75;4.60;;;15.50;99.90;;;;;;5019908;28;20528;-35
2022/06/28 06:32:34;;;;;;;5.95;4.35;;;15.60;99.90;;;;;;5014310;28;20022;-35
2022/06/28 06:35:00;;;;;;;9.30;6.10;;;15.60;99.90;;;;;;5026602;28;20080;-35
2022/06/28 06:37:26;;;;;;;10.27;5.18;;;15.70;99.90;;;;;;5013858;28;20030;-35
2022/06/28 06:39:52;;;;;;;6.82;4.10;;;15.80;99.90;;;;;;5023398;28;20018;-35
2022/06/28 06:42:17;;;;;;;6.70;4.50;;;15.70;99.90;;;;;;5016033;28;20036;-35
2022/06/28 06:44:43;;;;;;;8.60;4.20;;;15.80;99.90;;;;;;5010067;28;20034;-35
2022/06/28 06:47:09;;;;;;;6.55;3.65;;;15.80;99.90;;;;;;5013674;28;20045;-34
2022/06/28 06:49:34;;;;;;;6.75;3.40;;;15.90;99.90;;;;;;5011327;28;20049;-34
2022/06/28 06:52:00;;;;;;;9.63;3.33;;;15.90;99.90;;;;;;5011331;28;20044;-35
2022/06/28 06:54:25;;;;;;;5.32;3.08;;;16.00;99.90;;;;;;5014867;28;20034;-34
2022/06/28 06:56:51;;;;;;;7.00;3.13;;;16.00;99.90;;;;;;5007839;28;20026;-34
2022/06/28 06:59:17;;;;;;;7.80;3.35;;;16.10;99.90;;;;;;5017352;28;20077;-34
2022/06/28 07:01:43;;;;;;;8.07;3.60;;;16.10;99.90;;;;;;5008014;28;20474;-34
2022/06/28 07:04:10;;;;;;;8.50;3.03;;;16.10;99.90;;;;;;5017392;28;20476;-35
2022/06/28 07:06:36;;;;;;;7.25;3.63;;;16.20;99.90;;;;;;5006707;28;20030;-34
2022/06/28 07:09:03;;;;;;;5.28;2.97;;;16.20;99.90;;;;;;5018883;28;20471;-36
2022/06/28 07:11:29;;;;;;;6.03;3.17;;;16.20;99.90;;;;;;5005797;28;20084;-34
2022/06/28 07:13:55;;;;;;;6.05;2.65;;;16.20;99.90;;;;;;5018388;28;20029;-35
2022/06/28 07:16:20;;;;;;;7.38;3.40;;;16.30;99.90;;;;;;5006901;28;20029;-34
2022/06/28 07:18:46;;;;;;;9.30;3.00;;;16.30;99.90;;;;;;5016882;28;20522;-35
2022/06/28 07:21:12;;;;;;;5.93;2.85;;;16.40;99.90;;;;;;5007589;28;20104;-34
2022/06/28 07:23:37;;;;;;;7.35;2.83;;;16.40;99.90;;;;;;5015566;28;20021;-36
2022/06/28 07:26:03;;;;;;;7.55;2.90;;;16.50;99.90;;;;;;5008760;28;20046;-36
2022/06/28 07:28:29;;;;;;;7.97;3.13;;;16.50;99.90;;;;;;5012037;28;20393;-35
2022/06/28 07:30:55;;;;;;;6.00;2.38;;;16.50;99.90;;;;;;5012951;28;20030;-35
2022/06/28 07:33:20;;;;;;;5.95;2.60;;;16.50;99.90;;;;;;5009151;28;20026;-35
2022/06/28 07:35:46;;;;;;;7.55;3.08;;;16.60;99.90;;;;;;5014721;28;20045;-35
2022/06/28 07:38:12;;;;;;;5.40;2.80;;;16.60;99.90;;;;;;5009958;28;20475;-35
2022/06/28 07:40:38;;;;;;;9.93;2.47;;;16.60;99.90;;;;;;5019899;28;20113;-35
2022/06/28 07:43:03;;;;;;;6.57;2.80;;;16.80;99.90;;;;;;5024583;28;20033;-35
2022/06/28 07:45:29;;;;;;;9.35;2.70;;;16.90;99.90;;;;;;5013416;28;20033;-36
2022/06/28 07:47:54;;;;;;;8.20;2.60;;;17.00;99.90;;;;;;5025805;28;20358;-35
2022/06/28 07:53:06;;;;;;;4.82;2.35;;;17.10;99.90;;;;;;5025537;28;20052;-35
2022/06/28 07:55:32;;;;;;;7.63;2.38;;;17.10;99.90;;;;;;5025528;28;20367;-35
2022/06/28 07:57:59;;;;;;;5.15;2.10;;;17.10;99.90;;;;;;5025505;28;20136;-35
2022/06/28 08:00:25;;;;;;;5.30;2.28;;;17.20;99.90;;;;;;5024166;28;20045;-35
2022/06/28 08:02:50;;;;;;;6.28;2.40;;;17.20;99.90;;;;;;5025860;28;20040;-34
2022/06/28 08:05:16;;;;;;;5.47;2.63;;;17.30;99.90;;;;;;5025429;28;20034;-35
2022/06/28 08:07:42;;;;;;;5.72;2.67;;;17.30;99.90;;;;;;5024576;28;20060;-35
2022/06/28 08:10:08;;;;;;;7.25;2.30;;;17.40;99.90;;;;;;5025793;28;20498;-36
2022/06/28 08:12:34;;;;;;;5.43;2.20;;;17.40;99.90;;;;;;5024783;28;20499;-34
2022/06/28 08:15:00;;;;;;;7.25;2.67;;;17.50;99.90;;;;;;5024723;28;20030;-35
2022/06/28 08:17:25;;;;;;;5.18;2.60;;;17.50;99.90;;;;;;5025013;28;20057;-35
2022/06/28 08:19:51;;;;;;;6.40;2.13;;;17.60;99.90;;;;;;5024012;28;20025;-35
2022/06/28 08:22:17;;;;;;;4.32;1.77;;;17.60;99.90;;;;;;5024934;28;20032;-36
2022/06/28 08:24:42;;;;;;;5.65;1.85;;;17.70;99.90;;;;;;5028857;28;20448;-35
2022/06/28 08:27:08;;;;;;;4.53;1.60;;;17.70;99.90;;;;;;5029272;28;20045;-36
2022/06/28 08:29:34;;;;;;;4.93;2.17;;;17.80;99.90;;;;;;5028857;28;20028;-36
2022/06/28 08:32:01;;;;;;;5.68;1.90;;;17.80;99.90;;;;;;5030207;28;20063;-35
2022/06/28 08:34:26;;;;;;;5.22;1.80;;;17.80;99.90;;;;;;5029251;28;20029;-35
2022/06/28 08:36:52;;;;;;;6.25;2.05;;;17.90;99.90;;;;;;5029656;28;20017;-35
2022/06/28 08:39:17;;;;;;;6.07;1.40;;;18.00;99.90;;;;;;5028834;28;20059;-35
2022/06/28 08:41:45;;;;;;;4.22;1.10;;;18.00;99.90;;;;;;5028159;28;20017;-36
2022/06/28 08:44:11;;;;;;;3.92;1.25;;;18.00;99.90;;;;;;5029793;28;20060;-34
2022/06/28 08:46:38;;;;;;;6.35;1.65;;;18.10;99.90;;;;;;5028781;28;20041;-36
2022/06/28 08:49:12;;;;;;;6.72;2.30;;;18.10;99.90;;;;;;5028504;28;20021;-35
2022/06/28 08:51:38;;;;;;;2.72;1.13;;;18.20;99.90;;;;;;5028703;28;20034;-35
2022/06/28 08:54:04;;;;;;;4.43;1.45;;;18.20;99.90;;;;;;5029498;28;20381;-33
2022/06/28 08:56:30;;;;;;;4.68;1.40;;;18.20;99.90;;;;;;5027441;28;20021;-35
2022/06/28 08:58:59;;;;;;;3.58;1.67;;;18.20;99.90;;;;;;5028430;28;20058;-35
2022/06/28 09:01:25;;;;;;;4.15;1.38;;;18.20;99.90;;;;;;5023758;28;20025;-36
2022/06/28 09:03:52;;;;;;;3.38;1.25;;;18.30;99.90;;;;;;5020928;28;20029;-35
2022/06/28 09:06:18;;;;;;;4.20;1.30;;;18.30;99.90;;;;;;5026124;28;20037;-35
2022/06/28 09:08:43;;;;;;;2.17;1.00;;;18.30;99.90;;;;;;5019368;28;20468;-34
2022/06/28 09:11:09;;;;;;;2.22;1.00;;;18.40;99.90;;;;;;5026828;28;20030;-35
2022/06/28 09:13:35;;;;;;;3.72;1.42;;;18.40;99.90;;;;;;5017282;28;20016;-35
2022/06/28 09:16:03;;;;;;;2.65;1.45;;;18.50;99.90;;;;;;5027472;28;20033;-34
2022/06/28 09:18:34;;;;;;;5.07;1.20;;;18.60;99.90;;;;;;5023680;28;20048;-34
2022/06/28 09:21:01;;;;;;;5.13;2.13;;;18.70;99.90;;;;;;5029074;28;20025;-36
2022/06/28 09:23:33;;;;;;;3.38;1.38;;;18.80;99.90;;;;;;5028181;28;20384;-34
2022/06/28 09:26:06;;;;;;;4.03;1.33;;;18.80;99.90;;;;;;5028973;28;20183;-35
2022/06/28 09:28:33;;;;;;;3.15;1.10;;;18.90;99.90;;;;;;5027804;28;20033;-34
2022/06/28 09:31:31;;;;;;;3.10;1.20;;;18.90;99.90;;;;;;5028657;28;20036;-35
2022/06/28 09:34:00;;;;;;;3.17;1.40;;;18.90;99.90;;;;;;4990467;28;20034;-35
2022/06/28 09:36:26;;;;;;;2.28;1.15;;;19.00;99.90;;;;;;5026838;28;20064;-36
2022/06/28 09:38:53;;;;;;;2.22;1.27;;;19.10;99.90;;;;;;5027568;28;21139;-35
2022/06/28 09:41:25;;;;;;;3.53;1.02;;;19.10;99.90;;;;;;5027759;28;20438;-35
2022/06/28 09:43:59;;;;;;;3.72;1.10;;;19.10;99.90;;;;;;5027558;28;20033;-36
2022/06/28 09:46:27;;;;;;;3.25;1.02;;;19.20;99.90;;;;;;5027451;28;20033;-35
2022/06/28 09:49:01;;;;;;;2.80;1.23;;;19.20;99.90;;;;;;5027672;28;20025;-35
2022/06/28 09:51:29;;;;;;;2.85;1.38;;;19.20;99.90;;;;;;5027860;28;20037;-34
2022/06/28 09:54:02;;;;;;;1.70;1.25;;;19.30;99.90;;;;;;5027335;28;20377;-33
2022/06/28 09:56:31;;;;;;;3.63;1.55;;;19.40;99.90;;;;;;5027539;28;20033;-35
2022/06/28 09:58:57;;;;;;;3.47;1.40;;;19.40;99.90;;;;;;5026988;28;20046;-35
2022/06/28 10:01:23;;;;;;;1.65;1.10;;;19.40;99.90;;;;;;5027568;28;20079;-35
2022/06/28 10:03:49;;;;;;;4.57;1.35;;;19.40;99.90;;;;;;5027613;28;20029;-36
2022/06/28 10:06:17;;;;;;;1.83;0.82;;;19.50;99.90;;;;;;5026572;28;20266;-34
2022/06/28 10:08:43;;;;;;;5.78;1.15;;;19.60;99.90;;;;;;5027325;28;20084;-35
2022/06/28 10:11:10;;;;;;;4.32;1.23;;;19.60;99.90;;;;;;5027491;28;20033;-35
2022/06/28 10:16:47;;;;;;;2.35;0.90;;;19.80;99.90;;;;;;5021131;28;20539;-35
2022/06/28 10:19:17;;;;;;;2.88;0.80;;;19.90;99.50;;;;;;5027011;28;20035;-35
2022/06/28 10:21:43;;;;;;;4.63;1.00;;;19.90;99.40;;;;;;5026302;28;20052;-35
2022/06/28 10:24:08;;;;;;;0.65;0.43;;;19.90;99.20;;;;;;5027108;28;20481;-36
2022/06/28 10:26:34;;;;;;;1.67;0.70;;;19.90;99.30;;;;;;5027354;28;20119;-36
2022/06/28 10:29:05;;;;;;;2.75;1.10;;;19.90;98.90;;;;;;5025833;28;20489;-35
2022/06/28 10:31:37;;;;;;;1.67;0.77;;;19.90;99.00;;;;;;5026730;28;20400;-34
2022/06/28 10:34:08;;;;;;;2.10;0.60;;;19.90;98.60;;;;;;5026574;28;20167;-34
2022/06/28 10:36:46;;;;;;;2.15;0.75;;;19.90;98.90;;;;;;5007146;28;20030;-36
2022/06/28 10:39:26;;;;;;;1.08;0.50;;;19.90;99.10;;;;;;5011992;28;20025;-35
2022/06/28 10:41:53;;;;;;;2.63;0.68;;;20.00;99.20;;;;;;5023172;28;20045;-35
2022/06/28 10:44:23;;;;;;;2.28;0.60;;;20.00;99.20;;;;;;5026594;28;20500;-34
2022/06/28 10:47:14;;;;;;;2.05;0.70;;;20.10;99.10;;;;;;5026552;28;20037;-34
2022/06/28 10:49:44;;;;;;;2.15;0.80;;;20.20;98.70;;;;;;5025536;28;20516;-35
2022/06/28 10:52:15;;;;;;;1.30;0.77;;;20.20;98.20;;;;;;5027346;28;20029;-35
2022/06/28 10:55:18;;;;;;;1.35;0.68;;;20.30;98.10;;;;;;5026061;28;20027;-36
2022/06/28 10:57:45;;;;;;;2.42;0.75;;;20.40;97.70;;;;;;5006709;28;20429;-36
2022/06/28 11:00:20;;;;;;;2.38;0.90;;;20.40;97.80;;;;;;5013868;28;20105;-35
2022/06/28 11:02:59;;;;;;;1.17;0.60;;;20.50;97.70;;;;;;5026088;28;20135;-36
2022/06/28 11:05:45;;;;;;;1.33;0.55;;;20.50;97.60;;;;;;5025540;28;20486;-35
2022/06/28 11:08:11;;;;;;;2.15;0.73;;;20.60;97.30;;;;;;5026462;28;20029;-35
2022/06/28 11:10:57;;;;;;;1.55;0.60;;;20.70;97.40;;;;;;5025299;28;20021;-37
2022/06/28 11:13:23;;;;;;;2.30;0.70;;;20.70;97.10;;;;;;5026518;28;20060;-36
2022/06/28 11:15:49;;;;;;;2.22;1.50;;;20.80;97.30;;;;;;5026744;28;20064;-35
2022/06/28 11:18:15;;;;;;;3.08;1.08;;;20.80;97.40;;;;;;5025630;28;20029;-36
2022/06/28 11:20:41;;;;;;;1.90;0.77;;;20.80;97.00;;;;;;5025718;28;20021;-36
2022/06/28 11:23:08;;;;;;;1.65;0.90;;;20.90;97.10;;;;;;5025718;28;20104;-34
2022/06/28 11:28:20;;;;;;;1.77;0.85;;;20.90;96.80;;;;;;5015797;28;20412;-35
2022/06/28 11:30:46;;;;;;;0.77;0.57;;;20.90;96.70;;;;;;5025253;28;20017;-36
2022/06/28 11:33:11;;;;;;;2.53;1.00;;;20.90;96.60;;;;;;5018558;28;20045;-36
2022/06/28 11:35:38;;;;;;;2.08;0.60;;;21.10;96.80;;;;;;5006865;28;20014;-37
2022/06/28 11:38:09;;;;;;;1.83;0.70;;;21.10;96.70;;;;;;5017598;28;20112;-35
2022/06/28 11:40:44;;;;;;;1.90;0.60;;;21.20;96.50;;;;;;5006898;28;20474;-38
2022/06/28 11:43:15;;;;;;;2.13;0.68;;;21.30;96.40;;;;;;5025033;28;20022;-36
2022/06/28 11:45:48;;;;;;;0.98;0.65;;;21.40;96.20;;;;;;5025012;28;20390;-36
2022/06/28 11:48:16;;;;;;;1.80;0.60;;;21.50;96.10;;;;;;5025293;28;20214;-37
2022/06/28 11:50:52;;;;;;;1.40;0.80;;;21.50;96.10;;;;;;5025823;28;20033;-37
2022/06/28 11:53:19;;;;;;;2.30;0.63;;;21.60;95.80;;;;;;5024611;28;20079;-35
2022/06/28 11:55:50;;;;;;;1.75;0.80;;;21.60;95.60;;;;;;5025745;28;20508;-37
2022/06/28 11:58:21;;;;;;;3.45;1.38;;;21.60;95.50;;;;;;5024547;28;20481;-35
2022/06/28 12:01:14;;;;;;;2.63;0.90;;;21.70;95.60;;;;;;5025630;28;20102;-37
2022/06/28 12:03:42;;;;;;;0.95;0.60;;;21.70;95.60;;;;;;5023101;28;20037;-36
2022/06/28 12:06:13;;;;;;;1.13;0.70;;;21.80;95.10;;;;;;5025357;28;20055;-37
2022/06/28 12:08:59;;;;;;;1.67;0.55;;;22.00;95.00;;;;;;5025420;28;20029;-34
2022/06/28 12:11:28;;;;;;;2.88;1.35;;;22.20;95.20;;;;;;5025138;28;20029;-35
2022/06/28 12:14:08;;;;;;;2.10;0.90;;;22.20;94.70;;;;;;5025083;28;20421;-36
2022/06/28 12:16:40;;;;;;;3.30;0.63;;;22.20;94.60;;;;;;5025265;28;20029;-38
2022/06/28 12:19:12;;;;;;;;;;;22.20;94.80;;;;;;5025764;28;20028;-36
2022/06/28 12:21:39;;;;;;;3.38;0.95;;;22.20;94.60;;;;;;5024940;28;19935;-35
2022/06/28 12:24:05;;;;;;;2.45;0.82;;;22.30;94.80;;;;;;5025109;28;20039;-37
2022/06/28 12:26:39;;;;;;;1.85;0.65;;;22.30;94.70;;;;;;5024260;28;20108;-35
2022/06/28 12:29:04;;;;;;;3.20;0.60;;;22.40;94.60;;;;;;5025609;28;20435;-35
2022/06/28 12:31:30;;;;;;;1.88;0.60;;;22.50;94.70;;;;;;5024271;28;20047;-35
2022/06/28 12:33:56;;;;;;;0.88;0.45;;;22.50;94.70;;;;;;5023185;28;20161;-35
2022/06/28 12:36:21;;;;;;;2.92;0.80;;;22.60;94.70;;;;;;5009473;28;20127;-37
2022/06/28 12:38:46;;;;;;;2.22;0.70;;;22.60;94.70;;;;;;5011181;28;20194;-35
2022/06/28 12:41:12;;;;;;;1.75;0.65;;;22.60;94.60;;;;;;5021556;28;20039;-34
2022/06/28 12:43:38;;;;;;;1.05;0.70;;;22.60;94.80;;;;;;5022018;28;20477;-35
2022/06/28 12:46:03;;;;;;;1.48;0.68;;;22.50;94.80;;;;;;5016957;28;20091;-35
2022/06/28 12:48:32;;;;;;;0.85;0.50;;;22.50;94.60;;;;;;5022968;28;20507;-35
2022/06/28 12:50:57;;;;;;;1.60;0.57;;;22.60;94.50;;;;;;5014886;28;20207;-34
2022/06/28 12:53:23;;;;;;;1.38;0.50;;;22.70;94.40;;;;;;5023472;28;20093;-35
2022/06/28 12:55:48;;;;;;;1.42;0.63;;;22.80;94.20;;;;;;5013134;28;20025;-35
2022/06/28 12:58:14;;;;;;;1.95;0.70;;;22.90;94.10;;;;;;5025589;28;20423;-36
2022/06/28 13:00:40;;;;;;;0.82;0.50;;;22.90;94.20;;;;;;5024474;28;20049;-35
2022/06/28 13:03:06;;;;;;;1.77;0.70;;;23.00;94.30;;;;;;5024510;28;20030;-36